Terminal Aerodrome Forecast
Issued by NWS

Home | Current Version | Previous Version | Text Only | Print | Product List | Glossary On
Versions: 1 2 3 4 5 6 7 8 9 10 11 12 13 14 15 16
000
FTUS46 KSEW 220100 AAA
TAFBLI
TAF AMD
KBLI 220133Z 2202/2224 17008KT P6SM SCT090 OVC150
     FM220600 17005KT P6SM OVC020
     FM221800 VRB04KT P6SM BKN030
     FM222100 VRB04KT P6SM SCT030 SCT045=

USA.gov is the U.S. government's official web portal to all federal, state and local government web resources and services.